createdAt,value
2022-12-03T00:00:14.188Z,101470.34
2022-12-03T00:02:42.431Z,101467.91
2022-12-03T00:05:11.099Z,101464.56
2022-12-03T00:07:39.009Z,101472.38
2022-12-03T00:10:08.463Z,101461.34
2022-12-03T00:12:37.714Z,101470.06
2022-12-03T00:15:06.062Z,101465.78
2022-12-03T00:17:33.841Z,101458.94
2022-12-03T00:20:01.668Z,101461.53
2022-12-03T00:22:29.380Z,101465.88
2022-12-03T00:24:57.063Z,101452.91
2022-12-03T00:27:24.785Z,101452.00
2022-12-03T00:29:53.863Z,101454.44
2022-12-03T00:32:21.851Z,101459.72
2022-12-03T00:34:49.688Z,101461.44
2022-12-03T00:37:17.743Z,101454.50
2022-12-03T00:39:45.509Z,101451.72
2022-12-03T00:42:13.308Z,101455.88
2022-12-03T00:44:41.120Z,101441.44
2022-12-03T00:47:12.717Z,101446.84
2022-12-03T00:49:41.229Z,101446.91
2022-12-03T00:52:08.950Z,101448.72
2022-12-03T00:54:36.644Z,101436.63
2022-12-03T00:57:04.800Z,101447.00
2022-12-03T00:59:32.515Z,101453.13
2022-12-03T01:02:00.343Z,101441.97
2022-12-03T01:04:29.561Z,101443.78
2022-12-03T01:06:57.268Z,101443.06
2022-12-03T01:09:24.956Z,101447.22
2022-12-03T01:11:52.821Z,101437.72
2022-12-03T01:14:21.355Z,101447.22
2022-12-03T01:16:49.901Z,101442.88
2022-12-03T01:19:18.333Z,101436.81
2022-12-03T01:21:49.815Z,101439.47
2022-12-03T01:24:18.662Z,101448.13
2022-12-03T01:26:46.482Z,101448.91
2022-12-03T01:29:14.671Z,101439.50
2022-12-03T01:31:59.868Z,101441.25
2022-12-03T01:34:27.570Z,101449.88
2022-12-03T01:36:56.668Z,101446.59
2022-12-03T01:39:24.642Z,101454.34
2022-12-03T01:41:53.745Z,101452.63
2022-12-03T01:44:23.989Z,101461.38
2022-12-03T01:46:54.243Z,101457.03
2022-12-03T01:49:24.838Z,101457.13
2022-12-03T01:51:53.652Z,101447.84
2022-12-03T01:54:27.808Z,101456.44
2022-12-03T01:56:56.535Z,101441.75
2022-12-03T01:59:33.921Z,101446.78
2022-12-03T02:02:07.212Z,101456.13
2022-12-03T02:04:35.056Z,101449.44
2022-12-03T02:07:18.127Z,101447.75
2022-12-03T02:09:47.259Z,101443.47
2022-12-03T02:12:18.636Z,101445.16
2022-12-03T02:14:46.746Z,101445.09
2022-12-03T02:17:14.704Z,101434.72
2022-12-03T02:19:42.432Z,101450.09
2022-12-03T02:22:27.710Z,101433.00
2022-12-03T02:25:11.313Z,101442.50
2022-12-03T02:27:39.266Z,101441.53
2022-12-03T02:30:09.086Z,101443.28
2022-12-03T02:32:37.543Z,101448.38
2022-12-03T02:35:05.825Z,101443.28
2022-12-03T02:37:37.700Z,101441.63
2022-12-03T02:40:10.568Z,101434.78
2022-12-03T02:42:39.319Z,101436.38
2022-12-03T02:45:12.235Z,101438.13
2022-12-03T02:47:43.460Z,101433.81
2022-12-03T02:50:13.885Z,101413.97
2022-12-03T02:52:43.386Z,101420.19
2022-12-03T02:55:12.603Z,101427.84
2022-12-03T02:57:42.509Z,101418.44
2022-12-03T03:00:12.212Z,101427.03
2022-12-03T03:02:42.402Z,101429.63
2022-12-03T03:05:11.787Z,101432.28
2022-12-03T03:07:40.609Z,101427.94
2022-12-03T03:10:12.740Z,101422.84
2022-12-03T03:12:41.998Z,101419.41
2022-12-03T03:15:12.231Z,101420.38
2022-12-03T03:17:42.111Z,101419.66
2022-12-03T03:20:11.746Z,101417.97
2022-12-03T03:22:41.582Z,101414.44
2022-12-03T03:25:11.786Z,101412.63
2022-12-03T03:27:42.003Z,101415.28
2022-12-03T03:30:12.391Z,101418.59
2022-12-03T03:32:40.995Z,101419.38
2022-12-03T03:35:11.835Z,101416.81
2022-12-03T03:37:40.269Z,101405.75
2022-12-03T03:40:09.128Z,101415.13
2022-12-03T03:42:38.641Z,101412.47
2022-12-03T03:45:10.090Z,101409.06
2022-12-03T03:47:38.384Z,101416.84
2022-12-03T03:50:07.913Z,101401.59
2022-12-03T03:52:36.325Z,101405.00
2022-12-03T03:55:04.298Z,101403.31
2022-12-03T03:57:31.988Z,101411.09
2022-12-03T04:00:00.390Z,101415.47
2022-12-03T04:02:29.449Z,101412.88
2022-12-03T04:04:57.264Z,101408.63
2022-12-03T04:07:25.262Z,101406.03
2022-12-03T04:09:52.934Z,101408.63
2022-12-03T04:12:38.225Z,101406.13
2022-12-03T04:15:07.925Z,101406.03
2022-12-03T04:17:38.087Z,101406.03
2022-12-03T04:20:07.015Z,101412.97
2022-12-03T04:22:39.825Z,101411.19
2022-12-03T04:25:26.584Z,101407.50
2022-12-03T04:28:12.426Z,101406.75
2022-12-03T04:30:40.209Z,101413.75
2022-12-03T04:33:26.915Z,101409.44
2022-12-03T04:35:54.711Z,101396.38
2022-12-03T04:38:22.439Z,101401.59
2022-12-03T04:41:03.713Z,101388.63
2022-12-03T04:43:33.375Z,101386.06
2022-12-03T04:46:02.424Z,101385.81
2022-12-03T04:48:32.057Z,101389.38
2022-12-03T04:50:59.746Z,101386.69
2022-12-03T04:53:27.402Z,101393.44
2022-12-03T04:55:55.107Z,101394.31
2022-12-03T04:58:22.775Z,101390.63
2022-12-03T05:00:50.545Z,101382.78
2022-12-03T05:03:18.239Z,101383.81
2022-12-03T05:05:50.187Z,101394.16
2022-12-03T05:08:17.892Z,101385.56
2022-12-03T05:10:45.633Z,101388.88
2022-12-03T05:13:13.393Z,101388.03
2022-12-03T05:15:41.040Z,101401.00
2022-12-03T05:18:09.017Z,101378.53
2022-12-03T05:20:41.667Z,101391.59
2022-12-03T05:23:11.407Z,101377.81
2022-12-03T05:25:39.196Z,101376.75
2022-12-03T05:28:07.572Z,101374.19
2022-12-03T05:30:35.811Z,101376.75
2022-12-03T05:33:03.890Z,101377.53
2022-12-03T05:35:31.562Z,101380.88
2022-12-03T05:37:59.284Z,101382.41
2022-12-03T05:40:29.065Z,101378.19
2022-12-03T05:42:56.826Z,101373.09
2022-12-03T05:45:26.464Z,101373.91
2022-12-03T05:47:54.536Z,101380.88
2022-12-03T05:50:23.558Z,101376.56
2022-12-03T05:52:51.840Z,101383.44
2022-12-03T05:55:20.439Z,101382.69
2022-12-03T05:57:49.559Z,101385.25
2022-12-03T06:00:20.015Z,101385.28
2022-12-03T06:02:47.846Z,101383.44
2022-12-03T06:05:17.054Z,101373.84
2022-12-03T06:07:44.753Z,101372.19
2022-12-03T06:10:15.216Z,101379.16
2022-12-03T06:12:43.369Z,101373.97
2022-12-03T06:15:14.015Z,101377.44
2022-12-03T06:17:42.173Z,101374.00
2022-12-03T06:20:13.812Z,101374.84
2022-12-03T06:22:41.586Z,101373.19
2022-12-03T06:25:10.102Z,101368.13
2022-12-03T06:27:37.830Z,101367.31
2022-12-03T06:30:08.749Z,101380.03
2022-12-03T06:32:37.890Z,101374.09
2022-12-03T06:35:06.140Z,101363.75
2022-12-03T06:37:33.844Z,101381.84
2022-12-03T06:40:01.542Z,101367.97
2022-12-03T06:42:29.256Z,101379.94
2022-12-03T06:44:57.250Z,101373.00
2022-12-03T06:47:25.094Z,101373.97
2022-12-03T06:49:54.204Z,101371.16
2022-12-03T06:52:21.911Z,101375.44
2022-12-03T06:54:49.591Z,101376.38
2022-12-03T06:57:17.419Z,101369.56
2022-12-03T06:59:45.248Z,101379.84
2022-12-03T07:02:13.370Z,101371.34
2022-12-03T07:04:46.125Z,101366.38
2022-12-03T07:07:15.617Z,101369.00
2022-12-03T07:09:43.354Z,101372.50
2022-12-03T07:12:11.180Z,101374.16
2022-12-03T07:14:38.923Z,101378.53
2022-12-03T07:17:06.678Z,101381.13
2022-12-03T07:19:34.448Z,101377.81
2022-12-03T07:22:02.235Z,101366.63
2022-12-03T07:24:31.468Z,101373.59
2022-12-03T07:26:59.255Z,101373.69
2022-12-03T07:29:27.002Z,101370.31
2022-12-03T07:31:54.761Z,101370.34
2022-12-03T07:34:22.612Z,101367.03
2022-12-03T07:36:50.353Z,101371.22
2022-12-03T07:39:18.100Z,101369.56
2022-12-03T07:41:47.376Z,101374.81
2022-12-03T07:44:15.487Z,101376.44
2022-12-03T07:46:43.425Z,101374.78
2022-12-03T07:49:12.051Z,101375.59
2022-12-03T07:51:40.064Z,101374.81
2022-12-03T07:54:08.124Z,101375.75
2022-12-03T07:56:35.943Z,101370.53
2022-12-03T07:59:05.136Z,101382.75
2022-12-03T08:01:32.979Z,101373.19
2022-12-03T08:04:00.784Z,101381.78
2022-12-03T08:06:28.501Z,101384.53
2022-12-03T08:08:56.304Z,101380.41
2022-12-03T08:11:24.322Z,101379.56
2022-12-03T08:13:52.059Z,101375.28
2022-12-03T08:16:23.228Z,101373.72
2022-12-03T08:18:51.992Z,101385.91
2022-12-03T08:21:21.603Z,101384.22
2022-12-03T08:23:49.576Z,101379.06
2022-12-03T08:26:23.585Z,101384.22
2022-12-03T08:28:52.320Z,101381.72
2022-12-03T08:31:26.874Z,101388.59
2022-12-03T08:34:15.952Z,101383.50
2022-12-03T08:36:43.728Z,101386.16
2022-12-03T08:39:30.309Z,101389.63
2022-12-03T08:42:18.678Z,101386.00
2022-12-03T08:44:46.439Z,101393.84
2022-12-03T08:47:20.843Z,101379.31
2022-12-03T08:49:54.834Z,101388.84
2022-12-03T08:52:27.361Z,101389.31
2022-12-03T08:54:57.356Z,101381.91
2022-12-03T08:57:30.069Z,101380.34
2022-12-03T09:00:01.459Z,101378.75
2022-12-03T09:02:34.075Z,101379.72
2022-12-03T09:05:14.213Z,101377.34
2022-12-03T09:07:42.088Z,101379.94
2022-12-03T09:10:10.475Z,101384.31
2022-12-03T09:12:38.874Z,101381.06
2022-12-03T09:15:07.588Z,101380.13
2022-12-03T09:17:36.637Z,101377.69
2022-12-03T09:20:05.780Z,101375.78
2022-12-03T09:22:33.587Z,101382.78
2022-12-03T09:25:01.381Z,101387.22
2022-12-03T09:27:29.082Z,101384.97
2022-12-03T09:29:57.124Z,101378.97
2022-12-03T09:32:25.072Z,101378.06
2022-12-03T09:34:54.650Z,101379.06
2022-12-03T09:37:23.077Z,101378.38
2022-12-03T09:39:50.808Z,101385.19
2022-12-03T09:42:18.713Z,101361.91
2022-12-03T09:44:46.988Z,101372.13
2022-12-03T09:47:14.917Z,101367.06
2022-12-03T09:49:43.291Z,101363.72
2022-12-03T09:52:25.473Z,101367.03
2022-12-03T09:54:54.560Z,101361.06
2022-12-03T09:57:22.547Z,101359.22
2022-12-03T09:59:50.425Z,101360.03
2022-12-03T10:02:23.213Z,101357.69
2022-12-03T10:04:51.210Z,101358.50
2022-12-03T10:07:20.541Z,101350.31
2022-12-03T10:09:48.334Z,101355.00
2022-12-03T10:12:16.342Z,101354.34
2022-12-03T10:14:44.157Z,101358.53
2022-12-03T10:17:12.929Z,101345.44
2022-12-03T10:19:42.641Z,101348.22
2022-12-03T10:22:10.407Z,101350.16
2022-12-03T10:24:40.035Z,101346.78
2022-12-03T10:27:22.983Z,101342.09
2022-12-03T10:29:58.641Z,101339.47
2022-12-03T10:32:27.963Z,101328.34
2022-12-03T10:35:09.595Z,101332.75
2022-12-03T10:37:37.336Z,101333.44
2022-12-03T10:40:09.374Z,101321.63
2022-12-03T10:42:39.112Z,101327.53
2022-12-03T10:45:19.004Z,101313.75
2022-12-03T10:48:06.090Z,101309.31
2022-12-03T10:50:34.495Z,101308.56
2022-12-03T10:53:02.634Z,101304.16
2022-12-03T10:55:38.551Z,101304.34
2022-12-03T10:58:06.347Z,101297.56
2022-12-03T11:00:34.139Z,101293.72
2022-12-03T11:03:02.561Z,101292.03
2022-12-03T11:05:30.438Z,101285.50
2022-12-03T11:07:58.204Z,101268.31
2022-12-03T11:10:26.324Z,101275.84
2022-12-03T11:13:44.473Z,101279.28
2022-12-03T11:19:02.031Z,101289.31
2022-12-03T11:21:32.791Z,101273.97
2022-12-03T11:24:19.725Z,101269.59
2022-12-03T11:27:18.733Z,101273.47
2022-12-03T11:29:56.096Z,101267.63
2022-12-03T11:33:07.237Z,101271.03
2022-12-03T11:36:14.035Z,101257.78
2022-12-03T11:38:54.935Z,101266.44
2022-12-03T11:41:25.588Z,101265.78
2022-12-03T11:45:14.722Z,101254.72
2022-12-03T11:47:44.764Z,101255.25
2022-12-03T11:50:22.378Z,101254.25
2022-12-03T11:52:55.591Z,101248.72
2022-12-03T11:55:31.059Z,101251.44
2022-12-03T11:58:00.574Z,101253.97
2022-12-03T12:00:29.103Z,101245.34
2022-12-03T12:02:58.576Z,101247.31
2022-12-03T12:05:29.582Z,101239.66
2022-12-03T12:07:57.990Z,101232.56
2022-12-03T12:10:45.670Z,101242.97
2022-12-03T12:13:52.710Z,101239.66
2022-12-03T12:16:39.693Z,101227.56
2022-12-03T12:19:33.891Z,101226.31
2022-12-03T12:22:16.932Z,101229.88
2022-12-03T12:24:51.543Z,101221.91
2022-12-03T12:27:22.586Z,101204.75
2022-12-03T12:29:55.986Z,101211.88
2022-12-03T12:32:27.102Z,101202.63
2022-12-03T12:34:58.244Z,101206.13
2022-12-03T12:37:32.594Z,101205.47
2022-12-03T12:40:01.958Z,101202.00
2022-12-03T12:42:33.872Z,101201.09
2022-12-03T12:45:09.772Z,101200.28
2022-12-03T12:47:37.433Z,101203.75
2022-12-03T12:50:11.604Z,101196.06
2022-12-03T12:52:48.111Z,101199.59
2022-12-03T12:55:17.298Z,101197.81
2022-12-03T12:57:46.704Z,101194.06
2022-12-03T13:00:17.231Z,101194.03
2022-12-03T13:02:49.711Z,101198.81
2022-12-03T13:05:17.981Z,101194.47
2022-12-03T13:07:46.313Z,101188.38
2022-12-03T13:10:34.207Z,101188.34
2022-12-03T13:13:15.822Z,101185.03
2022-12-03T13:15:49.276Z,101183.38
2022-12-03T13:18:30.406Z,101178.31
2022-12-03T13:20:58.303Z,101169.94
2022-12-03T13:23:34.506Z,101176.00
2022-12-03T13:26:22.334Z,101161.50
2022-12-03T13:28:57.680Z,101169.41
2022-12-03T13:31:27.846Z,101167.72
2022-12-03T13:33:57.030Z,101162.34
2022-12-03T13:36:35.721Z,101162.31
2022-12-03T13:39:13.483Z,101170.69
2022-12-03T13:42:00.083Z,101156.81
2022-12-03T13:44:31.678Z,101161.09
2022-12-03T13:47:03.047Z,101157.53
2022-12-03T13:49:31.125Z,101162.69
2022-12-03T13:51:58.874Z,101163.69
2022-12-03T13:54:32.489Z,101160.25
2022-12-03T13:57:02.544Z,101160.25
2022-12-03T13:59:31.648Z,101154.25
2022-12-03T14:01:59.532Z,101158.53
2022-12-03T14:04:27.571Z,101162.06
2022-12-03T14:06:55.345Z,101159.41
2022-12-03T14:09:23.209Z,101151.34
2022-12-03T14:12:09.035Z,101150.59
2022-12-03T14:14:38.227Z,101154.88
2022-12-03T14:17:11.748Z,101148.22
2022-12-03T14:19:39.616Z,101149.03
2022-12-03T14:22:08.707Z,101150.78
2022-12-03T14:24:36.520Z,101145.69
2022-12-03T14:27:04.347Z,101138.94
2022-12-03T14:29:32.146Z,101146.69
2022-12-03T14:32:01.604Z,101146.44
2022-12-03T14:34:29.313Z,101137.88
2022-12-03T14:36:57.016Z,101143.16
2022-12-03T14:39:24.698Z,101145.47
2022-12-03T14:42:09.669Z,101143.03
2022-12-03T14:44:37.333Z,101136.81
2022-12-03T14:47:06.546Z,101145.25
2022-12-03T14:49:34.689Z,101139.31
2022-12-03T14:52:02.611Z,101143.75
2022-12-03T14:54:30.307Z,101140.03
2022-12-03T14:56:58.095Z,101142.66
2022-12-03T14:59:27.952Z,101142.59
2022-12-03T15:01:56.420Z,101141.72
2022-12-03T15:04:25.747Z,101135.06
2022-12-03T15:06:53.586Z,101133.22
2022-12-03T15:09:21.325Z,101142.78
2022-12-03T15:11:49.022Z,101135.94
2022-12-03T15:14:16.770Z,101128.94
2022-12-03T15:16:44.590Z,101138.25
2022-12-03T15:19:14.956Z,101137.22
2022-12-03T15:21:44.033Z,101134.56
2022-12-03T15:24:11.733Z,101138.19
2022-12-03T15:26:39.472Z,101134.84
2022-12-03T15:29:07.353Z,101139.19
2022-12-03T15:31:35.046Z,101141.84
2022-12-03T15:34:02.786Z,101143.59
2022-12-03T15:36:30.480Z,101133.00
2022-12-03T15:38:59.506Z,101140.84
2022-12-03T15:41:29.791Z,101127.78
2022-12-03T15:43:59.447Z,101138.75
2022-12-03T15:46:28.428Z,101133.66
2022-12-03T15:48:56.757Z,101134.47
2022-12-03T15:51:25.506Z,101131.06
2022-12-03T15:53:53.293Z,101131.06
2022-12-03T15:56:22.357Z,101136.22
2022-12-03T15:58:50.121Z,101137.09
2022-12-03T16:01:18.474Z,101134.59
2022-12-03T16:03:46.983Z,101131.81
2022-12-03T16:06:14.825Z,101136.97
2022-12-03T16:08:42.540Z,101141.44
2022-12-03T16:11:10.251Z,101146.66
2022-12-03T16:13:39.427Z,101139.75
2022-12-03T16:16:07.448Z,101143.97
2022-12-03T16:18:35.304Z,101140.34
2022-12-03T16:21:02.938Z,101143.06
2022-12-03T16:23:30.665Z,101143.84
2022-12-03T16:25:58.364Z,101147.28
2022-12-03T16:28:26.090Z,101144.72
2022-12-03T16:30:55.240Z,101150.66
2022-12-03T16:33:27.576Z,101144.72
2022-12-03T16:35:55.864Z,101145.63
2022-12-03T16:38:24.959Z,101142.19
2022-12-03T16:40:52.685Z,101149.13
2022-12-03T16:43:20.363Z,101136.28
2022-12-03T16:46:02.835Z,101134.50
2022-12-03T16:48:31.914Z,101145.84
2022-12-03T16:50:59.576Z,101142.19
2022-12-03T16:53:27.322Z,101138.94
2022-12-03T16:55:55.028Z,101138.84
2022-12-03T16:58:22.894Z,101132.81
2022-12-03T17:00:50.768Z,101141.50
2022-12-03T17:03:18.734Z,101133.69
2022-12-03T17:05:48.563Z,101132.94
2022-12-03T17:08:17.107Z,101126.91
2022-12-03T17:10:45.759Z,101122.56
2022-12-03T17:13:14.019Z,101128.47
2022-12-03T17:15:41.818Z,101130.03
2022-12-03T17:18:10.107Z,101121.41
2022-12-03T17:20:38.312Z,101126.50
2022-12-03T17:23:07.463Z,101119.59
2022-12-03T17:25:35.377Z,101116.94
2022-12-03T17:28:03.206Z,101113.53
2022-12-03T17:30:30.951Z,101115.25
2022-12-03T17:32:58.658Z,101116.19
2022-12-03T17:35:26.757Z,101120.66
2022-12-03T17:37:54.441Z,101114.44
2022-12-03T17:40:24.169Z,101111.09
2022-12-03T17:42:51.969Z,101112.94
2022-12-03T17:45:19.666Z,101114.59
2022-12-03T17:47:47.471Z,101112.16
2022-12-03T17:50:15.139Z,101104.38
2022-12-03T17:52:42.800Z,101103.41
2022-12-03T17:55:14.469Z,101115.50
2022-12-03T17:57:47.078Z,101116.31
2022-12-03T18:00:15.343Z,101106.81
2022-12-03T18:02:43.088Z,101107.84
2022-12-03T18:05:11.233Z,101096.63
2022-12-03T18:07:39.029Z,101102.63
2022-12-03T18:10:08.281Z,101104.22
2022-12-03T18:12:36.017Z,101095.63
2022-12-03T18:15:05.769Z,101098.19
2022-12-03T18:17:33.912Z,101102.41
2022-12-03T18:20:02.248Z,101105.94
2022-12-03T18:22:30.292Z,101100.78
2022-12-03T18:24:58.223Z,101101.53
2022-12-03T18:27:26.078Z,101104.13
2022-12-03T18:29:54.107Z,101095.41
2022-12-03T18:32:29.215Z,101088.56
2022-12-03T18:34:58.285Z,101096.25
2022-12-03T18:37:28.018Z,101093.66
2022-12-03T18:39:57.582Z,101090.38
2022-12-03T18:42:25.892Z,101089.44
2022-12-03T18:44:55.639Z,101087.75
2022-12-03T18:47:26.431Z,101089.38
2022-12-03T18:49:54.940Z,101078.94
2022-12-03T18:52:24.841Z,101078.88
2022-12-03T18:54:52.576Z,101076.47
2022-12-03T18:57:20.259Z,101075.53
2022-12-03T18:59:47.985Z,101074.78
2022-12-03T19:02:46.046Z,101080.63
2022-12-03T19:05:09.223Z,101074.47
2022-12-03T19:07:37.162Z,101073.63
2022-12-03T19:10:05.438Z,101080.63
2022-12-03T19:12:33.791Z,101077.16
2022-12-03T19:15:01.703Z,101081.28
2022-12-03T19:17:29.610Z,101086.66
2022-12-03T19:19:57.631Z,101081.44
2022-12-03T19:22:27.130Z,101078.00
2022-12-03T19:24:55.066Z,101078.78
2022-12-03T19:27:22.797Z,101089.09
2022-12-03T19:29:50.938Z,101085.72
2022-12-03T19:32:18.673Z,101089.19
2022-12-03T19:34:46.584Z,101084.81
2022-12-03T19:37:14.411Z,101086.59
2022-12-03T19:39:43.916Z,101086.66
2022-12-03T19:42:11.591Z,101083.19
2022-12-03T19:44:39.932Z,101084.00
2022-12-03T19:47:07.618Z,101086.31
2022-12-03T19:49:35.343Z,101089.22
2022-12-03T19:52:03.056Z,101078.84
2022-12-03T19:54:30.732Z,101085.72
2022-12-03T19:56:59.841Z,101089.03
2022-12-03T19:59:27.544Z,101089.84
2022-12-03T20:01:55.380Z,101085.50
2022-12-03T20:04:23.250Z,101081.34
2022-12-03T20:06:50.919Z,101077.16
2022-12-03T20:09:20.528Z,101078.78
2022-12-03T20:11:51.567Z,101082.31
2022-12-03T20:14:20.928Z,101082.06
2022-12-03T20:16:49.202Z,101076.97
2022-12-03T20:19:18.467Z,101070.97
2022-12-03T20:21:46.411Z,101078.78
2022-12-03T20:24:17.004Z,101074.47
2022-12-03T20:26:44.973Z,101081.22
2022-12-03T20:29:13.087Z,101080.34
2022-12-03T20:31:42.223Z,101074.47
2022-12-03T20:34:11.763Z,101073.56
2022-12-03T20:36:39.903Z,101073.50
2022-12-03T20:39:08.591Z,101069.28
2022-12-03T20:41:36.891Z,101074.41
2022-12-03T20:44:05.912Z,101069.31
2022-12-03T20:46:33.837Z,101063.38
2022-12-03T20:49:02.969Z,101068.53
2022-12-03T20:51:32.123Z,101066.66
2022-12-03T20:54:01.184Z,101065.81
2022-12-03T20:56:31.178Z,101058.91
2022-12-03T20:59:01.366Z,101060.66
2022-12-03T21:01:29.553Z,101065.81
2022-12-03T21:03:57.872Z,101062.91
2022-12-03T21:06:29.926Z,101061.44
2022-12-03T21:08:58.979Z,101062.31
2022-12-03T21:11:29.451Z,101056.13
2022-12-03T21:13:59.285Z,101055.38
2022-12-03T21:16:59.099Z,101058.63
2022-12-03T21:19:18.142Z,101054.28
2022-12-03T21:21:47.219Z,101058.66
2022-12-03T21:24:14.988Z,101056.06
2022-12-03T21:26:42.915Z,101049.97
2022-12-03T21:29:10.692Z,101051.63
2022-12-03T21:31:39.742Z,101045.75
2022-12-03T21:34:08.460Z,101050.13
2022-12-03T21:36:36.356Z,101046.63
2022-12-03T21:39:06.201Z,101047.56
2022-12-03T21:41:35.039Z,101051.91
2022-12-03T21:44:03.257Z,101048.47
2022-12-03T21:47:12.050Z,101058.66
2022-12-03T21:49:20.196Z,101049.97
2022-12-03T21:51:47.975Z,101049.91
2022-12-03T21:54:17.007Z,101050.09
2022-12-03T21:56:45.035Z,101050.06
2022-12-03T21:59:12.904Z,101041.47
2022-12-03T22:01:45.693Z,101049.19
2022-12-03T22:04:14.923Z,101048.34
2022-12-03T22:06:42.614Z,101042.22
2022-12-03T22:09:10.383Z,101047.50
2022-12-03T22:11:39.551Z,101044.06
2022-12-03T22:14:08.418Z,101050.03
2022-12-03T22:16:36.360Z,101044.91
2022-12-03T22:19:05.012Z,101041.47
2022-12-03T22:21:32.736Z,101043.16
2022-12-03T22:24:00.410Z,101044.06
2022-12-03T22:26:28.272Z,101042.22
2022-12-03T22:28:57.308Z,101030.97
2022-12-03T22:31:25.025Z,101027.56
2022-12-03T22:33:52.783Z,101037.13
2022-12-03T22:36:21.911Z,101039.66
2022-12-03T22:38:50.154Z,101031.97
2022-12-03T22:41:18.885Z,101022.47
2022-12-03T22:43:47.872Z,101037.94
2022-12-03T22:46:18.156Z,101038.03
2022-12-03T22:48:47.462Z,101027.63
2022-12-03T22:51:17.759Z,101022.47
2022-12-03T22:53:45.695Z,101015.53
2022-12-03T22:56:13.426Z,101012.16
2022-12-03T22:58:42.118Z,101021.53
2022-12-03T23:01:09.957Z,101010.38
2022-12-03T23:03:39.012Z,101009.50
2022-12-03T23:06:11.714Z,101012.09
2022-12-03T23:08:39.684Z,101009.59
2022-12-03T23:11:07.796Z,101010.38
2022-12-03T23:13:35.691Z,101004.44
2022-12-03T23:16:04.025Z,100994.13
2022-12-03T23:18:32.371Z,100996.69
2022-12-03T23:21:01.473Z,101001.78
2022-12-03T23:23:29.478Z,101001.91
2022-12-03T23:25:58.623Z,100996.84
2022-12-03T23:28:26.617Z,101008.84
2022-12-03T23:30:54.800Z,101005.31
2022-12-03T23:33:23.081Z,100998.66
2022-12-03T23:35:50.821Z,101014.19
2022-12-03T23:38:19.881Z,100998.53
2022-12-03T23:40:48.440Z,101016.56
2022-12-03T23:43:16.423Z,101007.13
2022-12-03T23:45:44.137Z,101003.81
2022-12-03T23:48:12.530Z,100998.50
2022-12-03T23:50:41.156Z,100989.78
2022-12-03T23:53:09.006Z,100994.00
2022-12-03T23:55:41.371Z,100996.56
2022-12-03T23:58:09.043Z,101001.03
